Bessie Ellen — ZITL7 — position and weather

sailwx.info

Track history (hours):
 
Tides and Currents Weather Stations Pressure Air Temp Water Temp Dewpoint Dewpoint Depression Visibility Wind Speed Wind Dir Waves Ship Positions

Bessie Ellen

Ship's website: http://bessie-ellen.com/blog/

Last reported at 2017-May-27 19:31 UTC. Time now 2017-May-28 08:23 UTC.
Position N 56°22' W 005°33'.

Length 28 m.

Type: Sailing vessel. MMSI: 235005952.

Date/timePositionNaut miles runAvg speedWind from/ knotsBaromVisibWave heightAir tempDewpointWater temp
2017-May-27 19:31N 56°22' W 005°33'0 7.2
2017-May-27 19:31N 56°22' W 005°33'4 4.7
2017-May-27 18:42N 56°25' W 005°29'1 4.9
2017-May-27 18:30N 56°26' W 005°30'1 2.4
2017-May-27 18:00N 56°27' W 005°31'1 2.3
2017-May-27 17:30N 56°26' W 005°30'1 2.1
2017-May-27 16:53N 56°25' W 005°29'0 0.0
2017-May-27 14:09N 56°25' W 005°29'0 0.0
2017-May-27 12:33N 56°25' W 005°29'0 0.0
2017-May-27 12:24N 56°25' W 005°29'0 0.0
2017-May-27 11:54N 56°25' W 005°29'0 0.0
2017-May-27 11:30N 56°25' W 005°29'0 0.0
2017-May-27 09:36N 56°25' W 005°29'0 0.0
2017-May-27 09:12N 56°25' W 005°29'0 0.0
2017-May-27 08:18N 56°25' W 005°29'0 0.0
2017-May-27 08:00N 56°25' W 005°29'2 0.1
2017-May-26 07:50N 56°24' W 005°31'0 0.0
2017-May-26 03:17N 56°24' W 005°31'0 0.0
2017-May-26 03:00N 56°24' W 005°31'0 0.0
2017-May-26 02:30N 56°24' W 005°31'0 0.0
2017-May-26 02:00N 56°24' W 005°31'0 0.0
2017-May-26 01:30N 56°24' W 005°31'0 0.0
2017-May-26 01:00N 56°24' W 005°31'0 0.0
2017-May-26 00:30N 56°24' W 005°31'0 0.0
2017-May-25 23:06N 56°24' W 005°31'0 0.1
2017-May-25 23:00N 56°24' W 005°31'0 0.0
2017-May-25 22:29N 56°24' W 005°31'0 0.0
2017-May-25 21:59N 56°24' W 005°31'0 0.0
2017-May-25 21:30N 56°24' W 005°31'0 0.0
2017-May-25 20:20N 56°24' W 005°31'0 0.0
2017-May-25 19:49N 56°24' W 005°31'0 0.0
2017-May-25 19:30N 56°24' W 005°31'0 0.0
2017-May-25 19:00N 56°24' W 005°31'0 0.0
2017-May-25 18:30N 56°24' W 005°31'0 0.0
2017-May-25 17:45N 56°24' W 005°31'0 0.0
2017-May-25 16:35N 56°24' W 005°31'  
2017-May-20 16:53N 56°29' W 005°42'3 6.9
2017-May-20 16:30N 56°28' W 005°38'3 6.9
2017-May-20 16:00N 56°26' W 005°32'3 0.1
2017-May-19 07:59N 56°24' W 005°31'0 0.0
2017-May-19 07:30N 56°24' W 005°31'0 0.0
2017-May-19 04:02N 56°24' W 005°31'0 0.1
2017-May-19 03:59N 56°24' W 005°31'0 0.0
2017-May-19 03:26N 56°24' W 005°31'0 0.0
2017-May-18 23:06N 56°24' W 005°31'0 0.0
2017-May-18 22:55N 56°24' W 005°31'0 0.0
2017-May-18 22:30N 56°24' W 005°31'0 0.0
2017-May-18 22:00N 56°24' W 005°31'0 0.0
2017-May-18 21:29N 56°24' W 005°31'0 0.0
2017-May-18 20:58N 56°24' W 005°31'0 0.0
2017-May-18 20:30N 56°24' W 005°31'0 0.0
2017-May-18 19:58N 56°24' W 005°31'0 0.0
2017-May-18 19:30N 56°24' W 005°31'0 0.0
2017-May-18 19:00N 56°24' W 005°31'0 0.0
2017-May-18 18:30N 56°24' W 005°31'0 0.0
2017-May-18 17:54N 56°24' W 005°31'0 0.0
2017-May-18 17:27N 56°24' W 005°31'0 0.0
2017-May-18 17:00N 56°24' W 005°31'0 0.2
2017-May-18 16:26N 56°24' W 005°31'  
Track history (hours):
 
Tides and Currents Weather Stations Pressure Air Temp Water Temp Dewpoint Dewpoint Depression Visibility Wind Speed Wind Dir Waves Ship Positions

Bessie Ellen

Ship's website: http://bessie-ellen.com/blog/

Last reported at 2017-May-27 19:31 UTC. Time now 2017-May-28 08:23 UTC.
Position N 56°22' W 005°33'.

Length 28 m.

Type: Sailing vessel. MMSI: 235005952.

Date/timePositionNaut miles runAvg speedWind from/ knotsBaromVisibWave heightAir tempDewpointWater temp
2017-May-27 19:31N 56°22' W 005°33'0 7.2
2017-May-27 19:31N 56°22' W 005°33'4 4.7
2017-May-27 18:42N 56°25' W 005°29'1 4.9
2017-May-27 18:30N 56°26' W 005°30'1 2.4
2017-May-27 18:00N 56°27' W 005°31'1 2.3
2017-May-27 17:30N 56°26' W 005°30'1 2.1
2017-May-27 16:53N 56°25' W 005°29'0 0.0
2017-May-27 14:09N 56°25' W 005°29'0 0.0
2017-May-27 12:33N 56°25' W 005°29'0 0.0
2017-May-27 12:24N 56°25' W 005°29'0 0.0
2017-May-27 11:54N 56°25' W 005°29'0 0.0
2017-May-27 11:30N 56°25' W 005°29'0 0.0
2017-May-27 09:36N 56°25' W 005°29'0 0.0
2017-May-27 09:12N 56°25' W 005°29'0 0.0
2017-May-27 08:18N 56°25' W 005°29'0 0.0
2017-May-27 08:00N 56°25' W 005°29'2 0.1
2017-May-26 07:50N 56°24' W 005°31'0 0.0
2017-May-26 03:17N 56°24' W 005°31'0 0.0
2017-May-26 03:00N 56°24' W 005°31'0 0.0
2017-May-26 02:30N 56°24' W 005°31'0 0.0
2017-May-26 02:00N 56°24' W 005°31'0 0.0
2017-May-26 01:30N 56°24' W 005°31'0 0.0
2017-May-26 01:00N 56°24' W 005°31'0 0.0
2017-May-26 00:30N 56°24' W 005°31'0 0.0
2017-May-25 23:06N 56°24' W 005°31'0 0.1
2017-May-25 23:00N 56°24' W 005°31'0 0.0
2017-May-25 22:29N 56°24' W 005°31'0 0.0
2017-May-25 21:59N 56°24' W 005°31'0 0.0
2017-May-25 21:30N 56°24' W 005°31'0 0.0
2017-May-25 20:20N 56°24' W 005°31'0 0.0
2017-May-25 19:49N 56°24' W 005°31'0 0.0
2017-May-25 19:30N 56°24' W 005°31'0 0.0
2017-May-25 19:00N 56°24' W 005°31'0 0.0
2017-May-25 18:30N 56°24' W 005°31'0 0.0
2017-May-25 17:45N 56°24' W 005°31'0 0.0
2017-May-25 16:35N 56°24' W 005°31'  
2017-May-20 16:53N 56°29' W 005°42'3 6.9
2017-May-20 16:30N 56°28' W 005°38'3 6.9
2017-May-20 16:00N 56°26' W 005°32'3 0.1
2017-May-19 07:59N 56°24' W 005°31'0 0.0
2017-May-19 07:30N 56°24' W 005°31'0 0.0
2017-May-19 04:02N 56°24' W 005°31'0 0.1
2017-May-19 03:59N 56°24' W 005°31'0 0.0
2017-May-19 03:26N 56°24' W 005°31'0 0.0
2017-May-18 23:06N 56°24' W 005°31'0 0.0
2017-May-18 22:55N 56°24' W 005°31'0 0.0
2017-May-18 22:30N 56°24' W 005°31'0 0.0
2017-May-18 22:00N 56°24' W 005°31'0 0.0
2017-May-18 21:29N 56°24' W 005°31'0 0.0
2017-May-18 20:58N 56°24' W 005°31'0 0.0
2017-May-18 20:30N 56°24' W 005°31'0 0.0
2017-May-18 19:58N 56°24' W 005°31'0 0.0
2017-May-18 19:30N 56°24' W 005°31'0 0.0
2017-May-18 19:00N 56°24' W 005°31'0 0.0
2017-May-18 18:30N 56°24' W 005°31'0 0.0
2017-May-18 17:54N 56°24' W 005°31'0 0.0
2017-May-18 17:27N 56°24' W 005°31'0 0.0
2017-May-18 17:00N 56°24' W 005°31'0 0.2
2017-May-18 16:26N 56°24' W 005°31'  

Dump ship's entire track history